Terminal Aerodrome Forecast
Issued by NWS St Louis, MO

Home | Current Version | Previous Version | Text Only | Print | Product List | Glossary On
Versions: 1 2 3 4 5 6 7 8 9 10 11 12 13
000
FTUS43 KLSX 181700
TAFCOU
TAF
KCOU 181739Z 1818/1918 33008KT P6SM FEW030
     FM182000 33008KT P6SM BKN035
     FM190000 02005KT P6SM FEW050
     FM190300 VRB05KT P6SM SKC=

USA.gov is the U.S. government's official web portal to all federal, state and local government web resources and services.